createdAt,value
2023-01-11T00:00:26.057Z,7.65
2023-01-11T00:02:59.982Z,3.00
2023-01-11T00:05:26.850Z,3.35
2023-01-11T00:07:53.711Z,3.25
2023-01-11T00:10:20.533Z,4.07
2023-01-11T00:12:48.129Z,3.15
2023-01-11T00:15:14.956Z,4.07
2023-01-11T00:17:41.911Z,5.97
2023-01-11T00:20:10.232Z,3.50
2023-01-11T00:22:37.320Z,4.55
2023-01-11T00:25:04.491Z,4.60
2023-01-11T00:27:31.367Z,3.28
2023-01-11T00:29:58.178Z,3.38
2023-01-11T00:32:24.979Z,2.97
2023-01-11T00:34:51.736Z,3.40
2023-01-11T00:37:18.539Z,4.32
2023-01-11T00:39:45.326Z,6.93
2023-01-11T00:42:31.654Z,6.05
2023-01-11T00:45:27.917Z,4.18
2023-01-11T00:47:57.824Z,4.20
2023-01-11T00:50:25.399Z,6.00
2023-01-11T00:52:52.186Z,3.42
2023-01-11T00:55:19.120Z,4.18
2023-01-11T00:57:46.006Z,5.03
2023-01-11T01:00:13.453Z,3.20
2023-01-11T01:02:40.361Z,3.92
2023-01-11T01:05:07.480Z,4.45
2023-01-11T01:07:34.212Z,3.88
2023-01-11T01:10:01.026Z,7.47
2023-01-11T01:12:46.319Z,9.27
2023-01-11T01:15:13.065Z,4.80
2023-01-11T01:17:39.848Z,7.95
2023-01-11T01:20:07.405Z,2.78
2023-01-11T01:22:34.437Z,6.35
2023-01-11T01:25:01.206Z,6.50
2023-01-11T01:27:28.005Z,7.75
2023-01-11T01:29:54.707Z,7.20
2023-01-11T01:32:21.497Z,4.07
2023-01-11T01:34:48.350Z,2.42
2023-01-11T01:37:15.922Z,6.13
2023-01-11T01:39:42.655Z,3.63
2023-01-11T01:42:16.052Z,5.55
2023-01-11T01:44:54.717Z,3.42
2023-01-11T01:47:32.266Z,4.40
2023-01-11T01:50:00.068Z,4.28
2023-01-11T01:52:29.227Z,3.92
2023-01-11T01:54:57.806Z,6.38
2023-01-11T01:57:26.375Z,6.88
2023-01-11T01:59:53.193Z,2.83
2023-01-11T02:02:20.671Z,2.17
2023-01-11T02:04:47.517Z,2.30
2023-01-11T02:07:19.050Z,2.90
2023-01-11T02:10:02.567Z,3.42
2023-01-11T02:12:31.855Z,3.05
2023-01-11T02:15:03.493Z,10.07
2023-01-11T02:17:30.317Z,4.47
2023-01-11T02:20:11.914Z,3.20
2023-01-11T02:23:06.497Z,3.72
2023-01-11T02:25:54.748Z,7.50
2023-01-11T02:28:42.080Z,5.22
2023-01-11T02:31:49.432Z,5.10
2023-01-11T02:34:27.449Z,3.85
2023-01-11T02:37:31.959Z,4.65
2023-01-11T02:40:00.176Z,6.30
2023-01-11T02:43:21.501Z,4.28
2023-01-11T02:45:52.829Z,4.65
2023-01-11T02:48:34.644Z,5.28
2023-01-11T02:51:15.967Z,3.35
2023-01-11T02:53:49.287Z,5.80
2023-01-11T02:56:21.375Z,4.55
2023-01-11T02:58:49.290Z,7.85
2023-01-11T03:01:16.087Z,8.90
2023-01-11T03:03:42.878Z,10.10
2023-01-11T03:06:12.378Z,6.38
2023-01-11T03:09:02.895Z,5.15
2023-01-11T03:12:09.521Z,8.55
2023-01-11T03:14:44.858Z,2.10
2023-01-11T03:17:26.277Z,5.18
2023-01-11T03:19:54.808Z,4.50
2023-01-11T03:22:41.782Z,7.78
2023-01-11T03:25:29.728Z,3.42
2023-01-11T03:27:58.115Z,2.10
2023-01-11T03:30:34.310Z,5.22
2023-01-11T03:33:11.691Z,4.22
2023-01-11T03:35:54.629Z,4.75
2023-01-11T03:38:37.504Z,2.50
2023-01-11T03:41:19.586Z,3.47
2023-01-11T03:43:46.713Z,4.80
2023-01-11T03:46:22.758Z,2.97
2023-01-11T03:49:03.742Z,4.60
2023-01-11T03:51:31.873Z,5.47
2023-01-11T03:54:01.523Z,5.43
2023-01-11T03:56:36.763Z,4.63
2023-01-11T03:59:03.522Z,3.80
2023-01-11T04:01:30.338Z,5.13
2023-01-11T04:03:57.122Z,2.00
2023-01-11T04:06:24.102Z,3.13
2023-01-11T04:08:50.969Z,3.15
2023-01-11T04:11:17.725Z,3.45
2023-01-11T04:13:44.485Z,2.80
2023-01-11T04:16:11.314Z,4.55
2023-01-11T04:18:38.097Z,4.65
2023-01-11T04:21:05.087Z,4.78
2023-01-11T04:23:31.832Z,3.33
2023-01-11T04:25:58.583Z,2.47
2023-01-11T04:28:25.363Z,4.78
2023-01-11T04:30:52.162Z,6.25
2023-01-11T04:33:19.611Z,4.75
2023-01-11T04:35:46.384Z,3.25
2023-01-11T04:38:13.122Z,4.05
2023-01-11T04:40:39.846Z,3.22
2023-01-11T04:43:06.613Z,2.22
2023-01-11T04:45:33.463Z,1.65
2023-01-11T04:48:00.264Z,4.03
2023-01-11T04:50:27.336Z,3.95
2023-01-11T04:52:54.194Z,3.40
2023-01-11T04:55:21.064Z,5.97
2023-01-11T04:57:47.811Z,7.07
2023-01-11T05:00:15.937Z,5.57
2023-01-11T05:02:42.748Z,7.95
2023-01-11T05:05:10.259Z,3.53
2023-01-11T05:07:38.840Z,8.98
2023-01-11T05:10:06.316Z,6.78
2023-01-11T05:12:33.091Z,6.50
2023-01-11T05:14:59.918Z,5.70
2023-01-11T05:17:26.686Z,8.05
2023-01-11T05:19:53.449Z,12.40
2023-01-11T05:22:20.271Z,6.25
2023-01-11T05:24:47.152Z,5.68
2023-01-11T05:27:14.009Z,6.47
2023-01-11T05:29:40.889Z,5.93
2023-01-11T05:32:07.713Z,5.90
2023-01-11T05:34:34.500Z,5.90
2023-01-11T05:37:01.322Z,4.97
2023-01-11T05:39:28.180Z,6.35
2023-01-11T05:41:54.911Z,3.00
2023-01-11T05:44:40.151Z,4.32
2023-01-11T05:47:06.984Z,4.85
2023-01-11T05:49:33.956Z,6.90
2023-01-11T05:52:00.690Z,11.93
2023-01-11T05:54:27.558Z,12.50
2023-01-11T05:56:56.889Z,16.48
2023-01-11T05:59:23.844Z,12.45
2023-01-11T06:01:50.827Z,9.93
2023-01-11T06:04:17.699Z,15.20
2023-01-11T06:06:44.551Z,14.70
2023-01-11T06:09:11.481Z,7.97
2023-01-11T06:11:38.253Z,10.52
2023-01-11T06:14:05.052Z,7.47
2023-01-11T06:16:31.894Z,8.55
2023-01-11T06:18:58.761Z,11.45
2023-01-11T06:21:25.630Z,9.55
2023-01-11T06:23:52.460Z,7.35
2023-01-11T06:26:21.281Z,8.02
2023-01-11T06:28:48.298Z,8.35
2023-01-11T06:31:17.417Z,10.07
2023-01-11T06:33:45.145Z,6.13
2023-01-11T06:36:12.379Z,8.27
2023-01-11T06:38:39.156Z,12.67
2023-01-11T06:41:08.245Z,6.57
2023-01-11T06:43:35.421Z,12.05
2023-01-11T06:46:02.303Z,14.27
2023-01-11T06:48:29.140Z,11.32
2023-01-11T06:50:57.287Z,51.33
2023-01-11T06:53:26.673Z,16.43
2023-01-11T06:55:56.378Z,22.50
2023-01-11T06:58:26.268Z,36.78
2023-01-11T07:00:53.913Z,35.08
2023-01-11T07:03:20.780Z,28.42
2023-01-11T07:05:47.661Z,17.98
2023-01-11T07:08:14.503Z,59.00
2023-01-11T07:10:41.741Z,44.17
2023-01-11T07:13:08.467Z,57.42
2023-01-11T07:15:35.244Z,22.42
2023-01-11T07:18:02.209Z,19.40
2023-01-11T07:20:29.237Z,17.90
2023-01-11T07:22:59.588Z,24.42
2023-01-11T07:25:27.818Z,23.80
2023-01-11T07:28:01.962Z,30.55
2023-01-11T07:30:29.957Z,30.90
2023-01-11T07:33:00.158Z,30.73
2023-01-11T07:35:29.758Z,33.25
2023-01-11T07:37:56.550Z,36.35
2023-01-11T07:40:23.368Z,34.83
2023-01-11T07:43:09.262Z,44.58
2023-01-11T07:45:45.265Z,45.03
2023-01-11T07:48:13.305Z,35.85
2023-01-11T07:50:42.697Z,25.48
2023-01-11T07:53:10.959Z,23.13
2023-01-11T07:55:39.678Z,22.88
2023-01-11T07:58:07.450Z,19.42
2023-01-11T08:00:34.228Z,22.02
2023-01-11T08:03:02.536Z,38.17
2023-01-11T08:05:29.585Z,17.42
2023-01-11T08:07:56.369Z,17.17
2023-01-11T08:10:23.212Z,15.50
2023-01-11T08:13:08.497Z,16.08
2023-01-11T08:15:36.701Z,17.58
2023-01-11T08:18:06.643Z,12.70
2023-01-11T08:20:33.556Z,15.48
2023-01-11T08:23:04.714Z,16.90
2023-01-11T08:25:32.102Z,22.95
2023-01-11T08:28:02.495Z,12.75
2023-01-11T08:30:29.626Z,7.82
2023-01-11T08:32:57.505Z,7.70
2023-01-11T08:35:25.307Z,6.03
2023-01-11T08:37:52.115Z,7.55
2023-01-11T08:40:19.033Z,4.80
2023-01-11T08:42:45.827Z,4.32
2023-01-11T08:45:12.617Z,8.43
2023-01-11T08:47:39.410Z,6.00
2023-01-11T08:50:08.262Z,7.72
2023-01-11T08:52:35.119Z,7.18
2023-01-11T08:55:01.882Z,5.10
2023-01-11T08:57:28.685Z,7.68
2023-01-11T08:59:55.490Z,6.35
2023-01-11T09:02:22.518Z,2.88
2023-01-11T09:04:49.309Z,3.78
2023-01-11T09:07:16.149Z,3.67
2023-01-11T09:09:42.966Z,2.58
2023-01-11T09:12:09.729Z,6.53
2023-01-11T09:14:36.520Z,5.90
2023-01-11T09:17:03.473Z,2.97
2023-01-11T09:19:30.299Z,10.57
2023-01-11T09:21:58.211Z,13.68
2023-01-11T09:24:24.997Z,4.57
2023-01-11T09:26:51.804Z,13.25
2023-01-11T09:29:19.359Z,7.55
2023-01-11T09:31:46.219Z,4.47
2023-01-11T09:34:13.389Z,8.10
2023-01-11T09:36:40.388Z,9.63
2023-01-11T09:39:10.551Z,5.38
2023-01-11T09:44:14.494Z,4.70
2023-01-11T09:46:42.947Z,5.10
2023-01-11T09:49:19.043Z,7.97
2023-01-11T09:51:46.221Z,6.97
2023-01-11T09:54:19.121Z,5.40
2023-01-11T09:56:51.245Z,8.13
2023-01-11T09:59:34.958Z,13.50
2023-01-11T10:02:34.618Z,19.77
2023-01-11T10:05:09.736Z,8.88
2023-01-11T10:07:37.955Z,11.00
2023-01-11T10:18:37.346Z,6.45
2023-01-11T10:21:55.311Z,6.70
2023-01-11T10:24:42.269Z,9.60
2023-01-11T10:27:26.610Z,7.10
2023-01-11T10:29:53.403Z,4.05
2023-01-11T10:32:48.206Z,4.88
2023-01-11T10:35:34.034Z,7.15
2023-01-11T10:38:30.855Z,13.73
2023-01-11T10:41:10.445Z,7.22
2023-01-11T10:43:43.381Z,5.15
2023-01-11T10:46:18.864Z,10.43
2023-01-11T10:48:46.098Z,6.07
2023-01-11T10:51:29.444Z,6.82
2023-01-11T10:54:00.047Z,10.02
2023-01-11T10:56:36.133Z,13.80
2023-01-11T10:59:20.695Z,8.80
2023-01-11T11:01:55.096Z,6.75
2023-01-11T11:04:48.212Z,11.88
2023-01-11T11:07:27.072Z,13.18
2023-01-11T11:10:11.391Z,16.02
2023-01-11T11:12:39.761Z,6.80
2023-01-11T11:15:18.805Z,19.60
2023-01-11T11:17:49.294Z,10.90
2023-01-11T11:20:24.414Z,5.10
2023-01-11T11:22:54.410Z,8.80
2023-01-11T11:25:42.025Z,12.10
2023-01-11T11:28:30.061Z,6.68
2023-01-11T11:30:58.730Z,4.20
2023-01-11T11:33:35.945Z,5.30
2023-01-11T11:36:05.004Z,6.82
2023-01-11T11:38:33.532Z,4.40
2023-01-11T11:41:13.945Z,5.93
2023-01-11T11:43:41.868Z,9.68
2023-01-11T11:46:18.749Z,8.35
2023-01-11T11:49:04.738Z,16.45
2023-01-11T11:51:31.545Z,14.57
2023-01-11T11:53:58.409Z,10.40
2023-01-11T11:56:31.021Z,35.63
2023-01-11T11:58:58.352Z,19.23
2023-01-11T12:01:26.722Z,8.95
2023-01-11T12:03:55.950Z,7.47
2023-01-11T12:06:27.781Z,12.05
2023-01-11T12:08:54.565Z,7.45
2023-01-11T12:11:35.040Z,7.60
2023-01-11T12:14:10.819Z,16.52
2023-01-11T12:16:39.700Z,11.20
2023-01-11T12:19:35.737Z,9.07
2023-01-11T12:22:25.517Z,7.03
2023-01-11T12:25:13.837Z,28.30
2023-01-11T12:28:01.822Z,18.20
2023-01-11T12:30:49.103Z,13.35
2023-01-11T12:33:18.994Z,16.92
2023-01-11T12:35:53.865Z,15.93
2023-01-11T12:38:49.997Z,15.30
2023-01-11T12:41:51.661Z,29.98
2023-01-11T12:45:07.441Z,10.82
2023-01-11T12:48:05.282Z,9.63
2023-01-11T12:50:50.458Z,9.80
2023-01-11T12:53:41.529Z,12.52
2023-01-11T12:56:33.191Z,11.05
2023-01-11T12:59:27.854Z,8.68
2023-01-11T13:01:57.655Z,11.13
2023-01-11T13:05:11.960Z,12.07
2023-01-11T13:08:15.659Z,10.00
2023-01-11T13:11:35.651Z,12.57
2023-01-11T13:14:39.847Z,14.90
2023-01-11T13:17:15.542Z,13.55
2023-01-11T13:19:42.377Z,16.13
2023-01-11T13:22:14.980Z,8.35
2023-01-11T13:24:41.901Z,12.75
2023-01-11T13:27:14.031Z,12.25
2023-01-11T13:29:42.850Z,8.07
2023-01-11T13:32:37.474Z,8.57
2023-01-11T13:35:15.260Z,15.65
2023-01-11T13:37:48.154Z,13.23
2023-01-11T13:40:30.582Z,16.73
2023-01-11T13:43:04.307Z,19.55
2023-01-11T13:45:35.982Z,13.43
2023-01-11T13:48:18.497Z,14.73
2023-01-11T13:50:51.438Z,18.63
2023-01-11T13:53:37.575Z,15.13
2023-01-11T13:56:16.111Z,15.82
2023-01-11T13:59:07.497Z,12.85
2023-01-11T14:02:12.199Z,14.95
2023-01-11T14:04:46.765Z,19.52
2023-01-11T14:07:17.192Z,15.02
2023-01-11T14:09:56.012Z,7.38
2023-01-11T14:12:28.812Z,9.00
2023-01-11T14:15:32.372Z,11.52
2023-01-11T14:18:23.604Z,25.15
2023-01-11T14:23:50.922Z,21.27
2023-01-11T14:26:42.547Z,15.25
2023-01-11T14:29:38.739Z,15.10
2023-01-11T14:32:17.748Z,17.50
2023-01-11T14:35:07.174Z,19.42
2023-01-11T14:38:01.542Z,18.08
2023-01-11T14:41:04.593Z,30.77
2023-01-11T14:44:06.571Z,14.13
2023-01-11T14:47:00.758Z,10.98
2023-01-11T14:49:44.171Z,20.33
2023-01-11T14:52:19.800Z,16.20
2023-01-11T14:54:47.276Z,11.95
2023-01-11T14:57:37.582Z,19.25
2023-01-11T15:00:24.329Z,11.30
2023-01-11T15:03:11.352Z,14.30
2023-01-11T15:05:44.259Z,18.38
2023-01-11T15:08:13.849Z,13.63
2023-01-11T15:10:56.536Z,14.32
2023-01-11T15:13:44.645Z,45.75
2023-01-11T15:16:41.180Z,32.15
2023-01-11T15:19:13.022Z,16.90
2023-01-11T15:21:47.817Z,83.55
2023-01-11T15:24:26.271Z,43.45
2023-01-11T15:26:53.213Z,59.05
2023-01-11T15:29:28.364Z,33.30
2023-01-11T15:32:01.060Z,32.30
2023-01-11T15:34:42.641Z,45.88
2023-01-11T15:37:40.785Z,80.68
2023-01-11T15:40:20.442Z,40.03
2023-01-11T15:43:21.149Z,15.02
2023-01-11T15:46:43.931Z,16.73
2023-01-11T15:49:25.909Z,42.08
2023-01-11T15:52:01.581Z,33.20
2023-01-11T15:54:37.997Z,23.27
2023-01-11T15:57:42.214Z,34.20
2023-01-11T16:00:35.911Z,33.42
2023-01-11T16:03:40.380Z,36.65
2023-01-11T16:06:25.964Z,30.75
2023-01-11T16:09:30.669Z,41.42
2023-01-11T16:12:36.070Z,33.13
2023-01-11T16:15:40.377Z,26.98
2023-01-11T16:18:15.406Z,38.45
2023-01-11T16:20:44.109Z,37.40
2023-01-11T16:23:17.939Z,72.80
2023-01-11T16:25:46.551Z,42.80
2023-01-11T16:28:17.984Z,34.85
2023-01-11T16:30:46.597Z,35.30
2023-01-11T16:33:23.693Z,37.53
2023-01-11T16:35:50.667Z,58.28
2023-01-11T16:38:19.756Z,71.22
2023-01-11T16:40:49.611Z,72.05
2023-01-11T16:43:19.929Z,72.38
2023-01-11T16:45:56.070Z,83.25
2023-01-11T16:48:23.977Z,70.97
2023-01-11T16:50:57.705Z,55.60
2023-01-11T16:53:25.681Z,188.27
2023-01-11T16:56:06.768Z,62.00
2023-01-11T17:01:14.579Z,73.70
2023-01-11T17:03:48.422Z,62.75
2023-01-11T17:06:19.518Z,61.50
2023-01-11T17:08:48.295Z,70.53
2023-01-11T17:11:35.072Z,73.03
2023-01-11T17:14:04.616Z,77.97
2023-01-11T17:16:32.466Z,126.38
2023-01-11T17:19:01.050Z,103.43
2023-01-11T17:21:29.042Z,74.70
2023-01-11T17:23:59.302Z,65.18
2023-01-11T17:26:28.042Z,57.45
2023-01-11T17:28:57.290Z,52.53
2023-01-11T17:31:30.539Z,44.30
2023-01-11T17:34:15.921Z,43.10
2023-01-11T17:36:42.732Z,38.00
2023-01-11T17:39:15.239Z,40.63
2023-01-11T17:42:00.560Z,36.97
2023-01-11T17:44:45.906Z,44.13
2023-01-11T17:47:12.875Z,48.97
2023-01-11T17:49:39.660Z,60.95
2023-01-11T17:52:19.247Z,39.20
2023-01-11T17:54:46.179Z,40.15
2023-01-11T17:57:12.902Z,37.08
2023-01-11T17:59:39.903Z,41.47
2023-01-11T18:02:13.762Z,45.97
2023-01-11T18:04:40.831Z,46.03
2023-01-11T18:07:19.818Z,41.72
2023-01-11T18:09:50.557Z,45.40
2023-01-11T18:12:21.592Z,48.90
2023-01-11T18:14:50.921Z,50.50
2023-01-11T18:17:32.930Z,52.30
2023-01-11T18:20:00.120Z,41.65
2023-01-11T18:22:37.455Z,36.85
2023-01-11T18:25:23.461Z,42.67
2023-01-11T18:27:51.009Z,40.37
2023-01-11T18:30:32.929Z,42.63
2023-01-11T18:33:01.891Z,37.17
2023-01-11T18:35:28.995Z,41.17
2023-01-11T18:37:55.829Z,42.60
2023-01-11T18:40:22.648Z,45.70
2023-01-11T18:42:50.804Z,66.47
2023-01-11T18:45:17.958Z,51.50
2023-01-11T18:47:44.799Z,45.23
2023-01-11T18:50:12.781Z,42.43
2023-01-11T18:52:39.589Z,35.13
2023-01-11T18:55:06.751Z,37.97
2023-01-11T18:57:33.657Z,37.67
2023-01-11T19:00:00.449Z,32.63
2023-01-11T19:02:27.305Z,39.20
2023-01-11T19:04:55.179Z,38.50
2023-01-11T19:07:23.052Z,45.23
2023-01-11T19:09:50.172Z,39.10
2023-01-11T19:12:17.130Z,40.33
2023-01-11T19:14:44.007Z,34.47
2023-01-11T19:17:11.220Z,56.77
2023-01-11T19:19:38.157Z,38.23
2023-01-11T19:22:05.411Z,46.60
2023-01-11T19:24:32.419Z,46.17
2023-01-11T19:26:59.376Z,47.90
2023-01-11T19:29:26.243Z,60.03
2023-01-11T19:31:53.339Z,51.13
2023-01-11T19:34:20.253Z,57.23
2023-01-11T19:36:47.216Z,57.53
2023-01-11T19:39:14.113Z,52.30
2023-01-11T19:42:01.388Z,40.90
2023-01-11T19:44:35.747Z,229.77
2023-01-11T19:47:11.421Z,124.77
2023-01-11T19:49:39.815Z,55.00
2023-01-11T19:52:12.545Z,39.83
2023-01-11T19:54:43.170Z,43.53
2023-01-11T19:57:14.947Z,50.67
2023-01-11T19:59:42.048Z,32.50
2023-01-11T20:02:13.922Z,38.17
2023-01-11T20:04:40.932Z,41.47
2023-01-11T20:07:08.433Z,42.30
2023-01-11T20:09:37.821Z,39.27
2023-01-11T20:12:09.171Z,42.60
2023-01-11T20:14:36.483Z,44.20
2023-01-11T20:17:03.344Z,46.70
2023-01-11T20:19:32.318Z,31.77
2023-01-11T20:21:59.049Z,29.27
2023-01-11T20:24:29.587Z,37.47
2023-01-11T20:27:00.482Z,42.83
2023-01-11T20:29:27.317Z,35.72
2023-01-11T20:31:54.135Z,37.20
2023-01-11T20:34:21.134Z,37.07
2023-01-11T20:36:48.914Z,39.40
2023-01-11T20:39:15.888Z,49.13
2023-01-11T20:41:48.871Z,49.07
2023-01-11T20:44:28.154Z,46.50
2023-01-11T20:46:56.049Z,105.73
2023-01-11T20:49:23.867Z,55.77
2023-01-11T20:51:50.698Z,42.17
2023-01-11T20:54:17.482Z,122.37
2023-01-11T20:56:46.946Z,102.10
2023-01-11T20:59:17.462Z,41.93
2023-01-11T21:01:44.393Z,50.55
2023-01-11T21:04:11.702Z,52.77
2023-01-11T21:06:40.983Z,55.57
2023-01-11T21:09:08.228Z,50.43
2023-01-11T21:11:35.244Z,77.63
2023-01-11T21:14:04.071Z,38.10
2023-01-11T21:16:31.446Z,57.00
2023-01-11T21:19:02.444Z,35.60
2023-01-11T21:23:57.952Z,39.77
2023-01-11T21:26:25.011Z,34.10
2023-01-11T21:28:53.366Z,50.90
2023-01-11T21:31:21.297Z,89.27
2023-01-11T21:33:50.848Z,36.13
2023-01-11T21:36:20.920Z,37.93
2023-01-11T21:38:47.765Z,44.97
2023-01-11T21:41:16.252Z,31.03
2023-01-11T21:43:43.102Z,47.10
2023-01-11T21:46:10.512Z,45.83
2023-01-11T21:48:37.431Z,51.70
2023-01-11T21:51:06.909Z,210.27
2023-01-11T21:53:34.552Z,80.90
2023-01-11T21:56:08.201Z,30.73
2023-01-11T21:58:35.243Z,51.17
2023-01-11T22:01:12.485Z,30.97
2023-01-11T22:03:42.186Z,30.00
2023-01-11T22:06:09.211Z,24.70
2023-01-11T22:08:36.790Z,23.07
2023-01-11T22:11:07.232Z,31.13
2023-01-11T22:13:34.782Z,69.65
2023-01-11T22:16:09.261Z,40.87
2023-01-11T22:18:36.146Z,34.50
2023-01-11T22:21:12.949Z,28.07
2023-01-11T22:23:40.260Z,32.13
2023-01-11T22:26:08.030Z,32.23
2023-01-11T22:28:57.510Z,27.63
2023-01-11T22:31:24.753Z,28.07
2023-01-11T22:33:51.718Z,44.33
2023-01-11T22:36:18.957Z,48.23
2023-01-11T22:38:46.877Z,45.53
2023-01-11T22:41:14.922Z,40.97
2023-01-11T22:43:43.076Z,53.80
2023-01-11T22:46:13.522Z,36.13
2023-01-11T22:48:40.327Z,40.00
2023-01-11T22:51:07.844Z,39.87
2023-01-11T22:53:38.526Z,28.83
2023-01-11T22:56:05.716Z,57.20
2023-01-11T22:58:32.536Z,45.83
2023-01-11T23:00:59.297Z,78.93
2023-01-11T23:03:26.156Z,73.00
2023-01-11T23:05:52.980Z,79.03
2023-01-11T23:08:19.736Z,80.50
2023-01-11T23:10:46.578Z,114.37
2023-01-11T23:13:31.803Z,141.37
2023-01-11T23:15:58.681Z,128.30
2023-01-11T23:18:25.694Z,130.30
2023-01-11T23:20:52.460Z,97.97
2023-01-11T23:23:19.297Z,102.57
2023-01-11T23:25:46.044Z,83.10
2023-01-11T23:28:12.821Z,72.73
2023-01-11T23:30:39.635Z,67.63
2023-01-11T23:33:06.428Z,65.80
2023-01-11T23:35:33.285Z,75.20
2023-01-11T23:38:00.123Z,92.17
2023-01-11T23:40:26.934Z,122.20
2023-01-11T23:42:53.645Z,118.87
2023-01-11T23:45:20.358Z,125.80
2023-01-11T23:47:47.135Z,132.13
2023-01-11T23:50:14.585Z,111.87
2023-01-11T23:52:41.413Z,123.03
2023-01-11T23:55:09.195Z,116.20
2023-01-11T23:57:36.019Z,105.53
